West Salem, Ohio
Current Conditions -  °F | °C
As of 9:16 AM on Monday 24 Nov 2014 (Local Time) from KMFD Reporting Station
Broken Clouds Broken Clouds  
Wind Chill: 15°   Ceiling: 2600
Heat Index: 15°   Visibility: 10mi
Dew Point: 11°   Wind: 25mph
Humidity: 78%   Direction: 180°S
Pressure: 29.26"   Gusts: 45mph
Location:  40.97°N, 82.11°W
Report Text: KMFD 241416Z 18022G39KT 10SM BKN026 BKN038 BKN100 15/11 A2926 RMK AO2 PK WND 18039/1412 T01500111
Loading
Personal Weather Stations






























Interactive Weather Map New forecast layout! Learn more

10-Day Weather Forecast

Advertisements
Track Severe Weather on mobile